sensor_id;sensor_type;location;lat;lon;timestamp;P1;durP1;ratioP1;P2;durP2;ratioP2
7875;SDS011;69649;53.712;9.680;2023-07-24T00:00:15;3.50;;;2.87;;
7875;SDS011;69649;53.712;9.680;2023-07-24T00:02:41;4.60;;;2.93;;
7875;SDS011;69649;53.712;9.680;2023-07-24T00:05:07;3.57;;;2.93;;
7875;SDS011;69649;53.712;9.680;2023-07-24T00:07:33;3.80;;;2.97;;
7875;SDS011;69649;53.712;9.680;2023-07-24T00:09:59;3.27;;;2.63;;
7875;SDS011;69649;53.712;9.680;2023-07-24T00:12:25;3.77;;;3.37;;
7875;SDS011;69649;53.712;9.680;2023-07-24T00:14:52;4.20;;;3.40;;
7875;SDS011;69649;53.712;9.680;2023-07-24T00:17:18;3.90;;;3.27;;
7875;SDS011;69649;53.712;9.680;2023-07-24T00:19:44;3.13;;;2.70;;
7875;SDS011;69649;53.712;9.680;2023-07-24T00:22:09;2.90;;;2.43;;
7875;SDS011;69649;53.712;9.680;2023-07-24T00:24:35;4.17;;;3.73;;
7875;SDS011;69649;53.712;9.680;2023-07-24T00:27:01;4.30;;;3.20;;
7875;SDS011;69649;53.712;9.680;2023-07-24T00:29:28;4.13;;;3.03;;
7875;SDS011;69649;53.712;9.680;2023-07-24T00:31:54;4.20;;;3.33;;
7875;SDS011;69649;53.712;9.680;2023-07-24T00:34:20;4.30;;;3.77;;
7875;SDS011;69649;53.712;9.680;2023-07-24T00:36:45;3.37;;;3.07;;
7875;SDS011;69649;53.712;9.680;2023-07-24T00:39:13;4.60;;;3.70;;
7875;SDS011;69649;53.712;9.680;2023-07-24T00:41:39;3.63;;;2.50;;
7875;SDS011;69649;53.712;9.680;2023-07-24T00:44:05;5.13;;;3.10;;
7875;SDS011;69649;53.712;9.680;2023-07-24T00:46:30;4.10;;;3.73;;
7875;SDS011;69649;53.712;9.680;2023-07-24T00:49:01;4.43;;;3.57;;
7875;SDS011;69649;53.712;9.680;2023-07-24T00:51:28;4.03;;;3.13;;
7875;SDS011;69649;53.712;9.680;2023-07-24T00:54:02;3.80;;;3.17;;
7875;SDS011;69649;53.712;9.680;2023-07-24T00:56:26;2.67;;;2.43;;
7875;SDS011;69649;53.712;9.680;2023-07-24T00:58:53;4.30;;;3.20;;
7875;SDS011;69649;53.712;9.680;2023-07-24T01:01:23;3.83;;;3.23;;
7875;SDS011;69649;53.712;9.680;2023-07-24T01:03:50;3.50;;;3.20;;
7875;SDS011;69649;53.712;9.680;2023-07-24T01:06:16;4.47;;;3.00;;
7875;SDS011;69649;53.712;9.680;2023-07-24T01:08:42;3.63;;;2.93;;
7875;SDS011;69649;53.712;9.680;2023-07-24T01:11:14;3.53;;;3.13;;
7875;SDS011;69649;53.712;9.680;2023-07-24T01:13:40;5.30;;;3.17;;
7875;SDS011;69649;53.712;9.680;2023-07-24T01:16:12;3.40;;;3.07;;
7875;SDS011;69649;53.712;9.680;2023-07-24T01:18:42;3.20;;;2.87;;
7875;SDS011;69649;53.712;9.680;2023-07-24T01:21:11;4.60;;;3.07;;
7875;SDS011;69649;53.712;9.680;2023-07-24T01:26:12;3.00;;;2.67;;
7875;SDS011;69649;53.712;9.680;2023-07-24T01:28:39;4.90;;;3.50;;
7875;SDS011;69649;53.712;9.680;2023-07-24T01:31:05;3.73;;;3.37;;
7875;SDS011;69649;53.712;9.680;2023-07-24T01:33:31;4.00;;;2.60;;
7875;SDS011;69649;53.712;9.680;2023-07-24T01:35:59;3.93;;;2.73;;
7875;SDS011;69649;53.712;9.680;2023-07-24T01:38:27;4.07;;;3.57;;
7875;SDS011;69649;53.712;9.680;2023-07-24T01:40:54;4.57;;;3.60;;
7875;SDS011;69649;53.712;9.680;2023-07-24T01:43:20;3.63;;;3.27;;
7875;SDS011;69649;53.712;9.680;2023-07-24T01:45:46;4.00;;;3.30;;
7875;SDS011;69649;53.712;9.680;2023-07-24T01:48:12;3.07;;;2.77;;
7875;SDS011;69649;53.712;9.680;2023-07-24T01:50:38;3.70;;;3.13;;
7875;SDS011;69649;53.712;9.680;2023-07-24T01:53:04;3.87;;;3.30;;
7875;SDS011;69649;53.712;9.680;2023-07-24T01:55:29;4.20;;;2.97;;
7875;SDS011;69649;53.712;9.680;2023-07-24T01:57:55;3.53;;;3.23;;
7875;SDS011;69649;53.712;9.680;2023-07-24T02:00:21;3.83;;;3.37;;
7875;SDS011;69649;53.712;9.680;2023-07-24T02:02:47;3.80;;;3.40;;
7875;SDS011;69649;53.712;9.680;2023-07-24T02:05:12;4.10;;;3.33;;
7875;SDS011;69649;53.712;9.680;2023-07-24T02:07:38;6.50;;;4.17;;
7875;SDS011;69649;53.712;9.680;2023-07-24T02:10:04;5.47;;;3.33;;
7875;SDS011;69649;53.712;9.680;2023-07-24T02:12:30;3.93;;;3.47;;
7875;SDS011;69649;53.712;9.680;2023-07-24T02:14:56;4.13;;;3.20;;
7875;SDS011;69649;53.712;9.680;2023-07-24T02:17:22;4.00;;;3.40;;
7875;SDS011;69649;53.712;9.680;2023-07-24T02:19:48;5.00;;;3.57;;
7875;SDS011;69649;53.712;9.680;2023-07-24T02:22:14;4.33;;;3.23;;
7875;SDS011;69649;53.712;9.680;2023-07-24T02:24:41;4.13;;;3.73;;
7875;SDS011;69649;53.712;9.680;2023-07-24T02:27:06;3.93;;;3.50;;
7875;SDS011;69649;53.712;9.680;2023-07-24T02:29:32;4.10;;;3.17;;
7875;SDS011;69649;53.712;9.680;2023-07-24T02:31:58;4.93;;;3.93;;
7875;SDS011;69649;53.712;9.680;2023-07-24T02:34:24;3.27;;;2.70;;
7875;SDS011;69649;53.712;9.680;2023-07-24T02:36:52;4.20;;;3.57;;
7875;SDS011;69649;53.712;9.680;2023-07-24T02:39:19;4.37;;;3.57;;
7875;SDS011;69649;53.712;9.680;2023-07-24T02:41:45;5.00;;;3.97;;
7875;SDS011;69649;53.712;9.680;2023-07-24T02:44:12;4.87;;;3.83;;
7875;SDS011;69649;53.712;9.680;2023-07-24T02:46:38;4.70;;;4.13;;
7875;SDS011;69649;53.712;9.680;2023-07-24T02:49:04;4.30;;;3.30;;
7875;SDS011;69649;53.712;9.680;2023-07-24T02:51:30;3.13;;;2.87;;
7875;SDS011;69649;53.712;9.680;2023-07-24T02:53:56;5.20;;;3.60;;
7875;SDS011;69649;53.712;9.680;2023-07-24T02:56:22;4.13;;;3.73;;
7875;SDS011;69649;53.712;9.680;2023-07-24T02:58:48;4.37;;;3.47;;
7875;SDS011;69649;53.712;9.680;2023-07-24T03:01:14;3.83;;;3.23;;
7875;SDS011;69649;53.712;9.680;2023-07-24T03:03:40;3.77;;;3.43;;
7875;SDS011;69649;53.712;9.680;2023-07-24T03:06:06;5.53;;;3.20;;
7875;SDS011;69649;53.712;9.680;2023-07-24T03:08:32;3.87;;;3.23;;
7875;SDS011;69649;53.712;9.680;2023-07-24T03:10:58;4.97;;;3.87;;
7875;SDS011;69649;53.712;9.680;2023-07-24T03:13:25;4.10;;;3.70;;
7875;SDS011;69649;53.712;9.680;2023-07-24T03:15:51;4.03;;;3.37;;
7875;SDS011;69649;53.712;9.680;2023-07-24T03:18:21;4.50;;;4.07;;
7875;SDS011;69649;53.712;9.680;2023-07-24T03:20:47;5.50;;;3.30;;
7875;SDS011;69649;53.712;9.680;2023-07-24T03:23:13;4.77;;;3.13;;
7875;SDS011;69649;53.712;9.680;2023-07-24T03:25:39;3.53;;;3.23;;
7875;SDS011;69649;53.712;9.680;2023-07-24T03:28:05;5.47;;;3.60;;
7875;SDS011;69649;53.712;9.680;2023-07-24T03:30:31;3.63;;;3.00;;
7875;SDS011;69649;53.712;9.680;2023-07-24T03:32:58;3.73;;;3.43;;
7875;SDS011;69649;53.712;9.680;2023-07-24T03:35:24;4.17;;;3.77;;
7875;SDS011;69649;53.712;9.680;2023-07-24T03:37:49;6.80;;;3.33;;
7875;SDS011;69649;53.712;9.680;2023-07-24T03:40:15;4.63;;;3.23;;
7875;SDS011;69649;53.712;9.680;2023-07-24T03:42:41;4.60;;;4.03;;
7875;SDS011;69649;53.712;9.680;2023-07-24T03:45:08;6.03;;;3.70;;
7875;SDS011;69649;53.712;9.680;2023-07-24T03:47:34;4.57;;;3.80;;
7875;SDS011;69649;53.712;9.680;2023-07-24T03:50:00;4.50;;;3.43;;
7875;SDS011;69649;53.712;9.680;2023-07-24T03:52:26;5.73;;;4.40;;
7875;SDS011;69649;53.712;9.680;2023-07-24T03:54:52;5.17;;;3.03;;
7875;SDS011;69649;53.712;9.680;2023-07-24T03:57:17;4.60;;;3.57;;
7875;SDS011;69649;53.712;9.680;2023-07-24T04:00:05;3.27;;;2.80;;
7875;SDS011;69649;53.712;9.680;2023-07-24T04:02:32;5.10;;;3.30;;
7875;SDS011;69649;53.712;9.680;2023-07-24T04:04:58;6.90;;;3.30;;
7875;SDS011;69649;53.712;9.680;2023-07-24T04:07:23;3.97;;;3.03;;
7875;SDS011;69649;53.712;9.680;2023-07-24T04:09:49;4.53;;;3.43;;
7875;SDS011;69649;53.712;9.680;2023-07-24T04:12:15;5.17;;;3.50;;
7875;SDS011;69649;53.712;9.680;2023-07-24T04:14:41;5.63;;;4.00;;
7875;SDS011;69649;53.712;9.680;2023-07-24T04:17:06;5.33;;;4.00;;
7875;SDS011;69649;53.712;9.680;2023-07-24T04:19:32;4.37;;;3.57;;
7875;SDS011;69649;53.712;9.680;2023-07-24T04:21:58;6.07;;;3.10;;
7875;SDS011;69649;53.712;9.680;2023-07-24T04:24:23;3.97;;;3.03;;
7875;SDS011;69649;53.712;9.680;2023-07-24T04:26:49;6.53;;;2.60;;
7875;SDS011;69649;53.712;9.680;2023-07-24T04:29:15;4.53;;;3.57;;
7875;SDS011;69649;53.712;9.680;2023-07-24T04:31:41;6.87;;;4.00;;
7875;SDS011;69649;53.712;9.680;2023-07-24T04:34:07;5.83;;;4.37;;
7875;SDS011;69649;53.712;9.680;2023-07-24T04:36:32;4.57;;;3.33;;
7875;SDS011;69649;53.712;9.680;2023-07-24T04:38:58;5.13;;;3.67;;
7875;SDS011;69649;53.712;9.680;2023-07-24T04:41:24;5.87;;;3.80;;
7875;SDS011;69649;53.712;9.680;2023-07-24T04:43:50;4.67;;;3.33;;
7875;SDS011;69649;53.712;9.680;2023-07-24T04:46:16;4.83;;;4.20;;
7875;SDS011;69649;53.712;9.680;2023-07-24T04:48:41;4.53;;;4.13;;
7875;SDS011;69649;53.712;9.680;2023-07-24T04:51:07;5.90;;;3.77;;
7875;SDS011;69649;53.712;9.680;2023-07-24T04:53:33;4.60;;;3.50;;
7875;SDS011;69649;53.712;9.680;2023-07-24T04:55:59;8.13;;;4.00;;
7875;SDS011;69649;53.712;9.680;2023-07-24T04:58:25;3.50;;;3.20;;
7875;SDS011;69649;53.712;9.680;2023-07-24T05:00:50;3.77;;;3.20;;
7875;SDS011;69649;53.712;9.680;2023-07-24T05:03:16;6.00;;;3.93;;
7875;SDS011;69649;53.712;9.680;2023-07-24T05:05:42;5.73;;;4.00;;
7875;SDS011;69649;53.712;9.680;2023-07-24T05:08:08;6.47;;;4.30;;
7875;SDS011;69649;53.712;9.680;2023-07-24T05:10:36;7.27;;;4.63;;
7875;SDS011;69649;53.712;9.680;2023-07-24T05:13:02;5.93;;;4.27;;
7875;SDS011;69649;53.712;9.680;2023-07-24T05:15:28;5.73;;;4.27;;
7875;SDS011;69649;53.712;9.680;2023-07-24T05:17:54;5.27;;;4.10;;
7875;SDS011;69649;53.712;9.680;2023-07-24T05:20:20;6.13;;;3.50;;
7875;SDS011;69649;53.712;9.680;2023-07-24T05:22:46;4.73;;;4.00;;
7875;SDS011;69649;53.712;9.680;2023-07-24T05:25:11;4.90;;;4.13;;
7875;SDS011;69649;53.712;9.680;2023-07-24T05:27:37;4.73;;;3.10;;
7875;SDS011;69649;53.712;9.680;2023-07-24T05:30:03;6.23;;;4.20;;
7875;SDS011;69649;53.712;9.680;2023-07-24T05:32:30;4.43;;;3.63;;
7875;SDS011;69649;53.712;9.680;2023-07-24T05:34:55;5.73;;;4.33;;
7875;SDS011;69649;53.712;9.680;2023-07-24T05:37:21;4.30;;;3.30;;
7875;SDS011;69649;53.712;9.680;2023-07-24T05:39:47;5.33;;;3.67;;
7875;SDS011;69649;53.712;9.680;2023-07-24T05:42:13;3.13;;;2.83;;
7875;SDS011;69649;53.712;9.680;2023-07-24T05:44:39;5.20;;;4.70;;
7875;SDS011;69649;53.712;9.680;2023-07-24T05:47:04;4.57;;;4.03;;
7875;SDS011;69649;53.712;9.680;2023-07-24T05:49:30;4.10;;;3.70;;
7875;SDS011;69649;53.712;9.680;2023-07-24T05:51:56;4.90;;;4.23;;
7875;SDS011;69649;53.712;9.680;2023-07-24T05:54:22;5.57;;;4.20;;
7875;SDS011;69649;53.712;9.680;2023-07-24T05:56:48;6.13;;;3.80;;
7875;SDS011;69649;53.712;9.680;2023-07-24T05:59:14;4.13;;;3.63;;
7875;SDS011;69649;53.712;9.680;2023-07-24T06:01:40;5.40;;;4.77;;
7875;SDS011;69649;53.712;9.680;2023-07-24T06:04:05;5.97;;;3.80;;
7875;SDS011;69649;53.712;9.680;2023-07-24T06:06:32;4.10;;;3.33;;
7875;SDS011;69649;53.712;9.680;2023-07-24T06:08:59;3.50;;;3.20;;
7875;SDS011;69649;53.712;9.680;2023-07-24T06:11:24;6.27;;;4.60;;
7875;SDS011;69649;53.712;9.680;2023-07-24T06:13:52;6.70;;;4.03;;
7875;SDS011;69649;53.712;9.680;2023-07-24T06:16:18;7.33;;;4.17;;
7875;SDS011;69649;53.712;9.680;2023-07-24T06:18:44;7.40;;;4.17;;
7875;SDS011;69649;53.712;9.680;2023-07-24T06:21:10;7.20;;;3.90;;
7875;SDS011;69649;53.712;9.680;2023-07-24T06:23:36;4.73;;;3.97;;
7875;SDS011;69649;53.712;9.680;2023-07-24T06:26:02;5.03;;;4.10;;
7875;SDS011;69649;53.712;9.680;2023-07-24T06:28:27;5.23;;;3.60;;
7875;SDS011;69649;53.712;9.680;2023-07-24T06:30:54;4.37;;;3.87;;
7875;SDS011;69649;53.712;9.680;2023-07-24T06:33:20;4.83;;;3.97;;
7875;SDS011;69649;53.712;9.680;2023-07-24T06:35:50;3.83;;;3.37;;
7875;SDS011;69649;53.712;9.680;2023-07-24T06:38:16;4.60;;;3.73;;
7875;SDS011;69649;53.712;9.680;2023-07-24T06:40:42;4.97;;;3.67;;
7875;SDS011;69649;53.712;9.680;2023-07-24T06:43:08;6.10;;;3.70;;
7875;SDS011;69649;53.712;9.680;2023-07-24T06:45:34;6.27;;;4.40;;
7875;SDS011;69649;53.712;9.680;2023-07-24T06:48:00;5.03;;;3.50;;
7875;SDS011;69649;53.712;9.680;2023-07-24T06:50:26;6.07;;;4.23;;
7875;SDS011;69649;53.712;9.680;2023-07-24T06:52:51;4.67;;;3.87;;
7875;SDS011;69649;53.712;9.680;2023-07-24T06:55:19;4.63;;;3.67;;
7875;SDS011;69649;53.712;9.680;2023-07-24T06:57:45;4.47;;;3.63;;
7875;SDS011;69649;53.712;9.680;2023-07-24T07:00:11;4.53;;;3.90;;
7875;SDS011;69649;53.712;9.680;2023-07-24T07:02:38;4.43;;;3.80;;
7875;SDS011;69649;53.712;9.680;2023-07-24T07:05:04;3.40;;;3.10;;
7875;SDS011;69649;53.712;9.680;2023-07-24T07:07:31;3.80;;;3.27;;
7875;SDS011;69649;53.712;9.680;2023-07-24T07:09:57;5.07;;;3.77;;
7875;SDS011;69649;53.712;9.680;2023-07-24T07:12:22;5.33;;;4.03;;
7875;SDS011;69649;53.712;9.680;2023-07-24T07:14:48;4.93;;;4.40;;
7875;SDS011;69649;53.712;9.680;2023-07-24T07:17:14;4.93;;;3.37;;
7875;SDS011;69649;53.712;9.680;2023-07-24T07:19:40;4.33;;;3.23;;
7875;SDS011;69649;53.712;9.680;2023-07-24T07:22:06;4.43;;;3.70;;
7875;SDS011;69649;53.712;9.680;2023-07-24T07:24:32;4.70;;;4.03;;
7875;SDS011;69649;53.712;9.680;2023-07-24T07:26:57;4.57;;;3.90;;
7875;SDS011;69649;53.712;9.680;2023-07-24T07:29:23;5.70;;;4.00;;
7875;SDS011;69649;53.712;9.680;2023-07-24T07:31:49;3.37;;;2.83;;
7875;SDS011;69649;53.712;9.680;2023-07-24T07:34:15;6.00;;;4.13;;
7875;SDS011;69649;53.712;9.680;2023-07-24T07:36:41;5.20;;;3.70;;
7875;SDS011;69649;53.712;9.680;2023-07-24T07:39:07;5.70;;;3.70;;
7875;SDS011;69649;53.712;9.680;2023-07-24T07:41:34;4.00;;;3.57;;
7875;SDS011;69649;53.712;9.680;2023-07-24T07:44:00;5.60;;;3.30;;
7875;SDS011;69649;53.712;9.680;2023-07-24T07:46:26;5.97;;;4.63;;
7875;SDS011;69649;53.712;9.680;2023-07-24T07:48:52;4.90;;;3.43;;
7875;SDS011;69649;53.712;9.680;2023-07-24T07:51:17;5.10;;;3.37;;
7875;SDS011;69649;53.712;9.680;2023-07-24T07:53:43;4.50;;;3.30;;
7875;SDS011;69649;53.712;9.680;2023-07-24T07:56:09;4.20;;;3.57;;
7875;SDS011;69649;53.712;9.680;2023-07-24T07:58:35;4.00;;;3.70;;
7875;SDS011;69649;53.712;9.680;2023-07-24T08:01:05;4.90;;;3.47;;
7875;SDS011;69649;53.712;9.680;2023-07-24T08:03:31;4.80;;;3.53;;
7875;SDS011;69649;53.712;9.680;2023-07-24T08:05:58;4.43;;;3.10;;
7875;SDS011;69649;53.712;9.680;2023-07-24T08:08:24;5.10;;;4.13;;
7875;SDS011;69649;53.712;9.680;2023-07-24T08:10:50;4.00;;;3.27;;
7875;SDS011;69649;53.712;9.680;2023-07-24T08:13:16;3.83;;;3.10;;
7875;SDS011;69649;53.712;9.680;2023-07-24T08:15:42;3.93;;;3.47;;
7875;SDS011;69649;53.712;9.680;2023-07-24T08:18:08;4.73;;;3.70;;
7875;SDS011;69649;53.712;9.680;2023-07-24T08:20:37;4.97;;;3.10;;
7875;SDS011;69649;53.712;9.680;2023-07-24T08:23:04;4.20;;;3.20;;
7875;SDS011;69649;53.712;9.680;2023-07-24T08:25:30;5.20;;;4.27;;
7875;SDS011;69649;53.712;9.680;2023-07-24T08:27:56;4.83;;;3.27;;
7875;SDS011;69649;53.712;9.680;2023-07-24T08:30:21;3.07;;;2.77;;
7875;SDS011;69649;53.712;9.680;2023-07-24T08:32:47;3.67;;;3.37;;
7875;SDS011;69649;53.712;9.680;2023-07-24T08:35:15;4.50;;;3.27;;
7875;SDS011;69649;53.712;9.680;2023-07-24T08:37:44;3.67;;;3.20;;
7875;SDS011;69649;53.712;9.680;2023-07-24T08:40:10;5.17;;;3.60;;
7875;SDS011;69649;53.712;9.680;2023-07-24T08:42:39;6.03;;;3.30;;
7875;SDS011;69649;53.712;9.680;2023-07-24T08:45:08;5.10;;;3.43;;
7875;SDS011;69649;53.712;9.680;2023-07-24T08:47:39;3.50;;;3.20;;
7875;SDS011;69649;53.712;9.680;2023-07-24T08:50:08;4.00;;;3.00;;
7875;SDS011;69649;53.712;9.680;2023-07-24T08:52:37;5.67;;;3.53;;
7875;SDS011;69649;53.712;9.680;2023-07-24T08:55:04;4.63;;;3.50;;
7875;SDS011;69649;53.712;9.680;2023-07-24T08:57:31;3.80;;;3.30;;
7875;SDS011;69649;53.712;9.680;2023-07-24T08:59:57;6.17;;;3.43;;
7875;SDS011;69649;53.712;9.680;2023-07-24T09:02:24;3.87;;;3.00;;
7875;SDS011;69649;53.712;9.680;2023-07-24T09:04:49;5.70;;;4.13;;
7875;SDS011;69649;53.712;9.680;2023-07-24T09:07:15;4.23;;;3.30;;
7875;SDS011;69649;53.712;9.680;2023-07-24T09:09:41;6.23;;;4.13;;
7875;SDS011;69649;53.712;9.680;2023-07-24T09:12:08;3.87;;;3.10;;
7875;SDS011;69649;53.712;9.680;2023-07-24T09:14:34;6.50;;;4.77;;
7875;SDS011;69649;53.712;9.680;2023-07-24T09:17:03;6.10;;;4.40;;
7875;SDS011;69649;53.712;9.680;2023-07-24T09:19:34;4.53;;;4.10;;
7875;SDS011;69649;53.712;9.680;2023-07-24T09:22:08;4.93;;;3.80;;
7875;SDS011;69649;53.712;9.680;2023-07-24T09:24:36;8.70;;;5.13;;
7875;SDS011;69649;53.712;9.680;2023-07-24T09:27:04;5.27;;;4.33;;
7875;SDS011;69649;53.712;9.680;2023-07-24T09:29:32;5.50;;;3.90;;
7875;SDS011;69649;53.712;9.680;2023-07-24T09:31:59;5.13;;;2.83;;
7875;SDS011;69649;53.712;9.680;2023-07-24T09:34:25;4.70;;;3.50;;
7875;SDS011;69649;53.712;9.680;2023-07-24T09:36:51;5.33;;;4.23;;
7875;SDS011;69649;53.712;9.680;2023-07-24T09:39:26;4.63;;;3.57;;
7875;SDS011;69649;53.712;9.680;2023-07-24T09:41:52;4.67;;;4.00;;
7875;SDS011;69649;53.712;9.680;2023-07-24T09:44:20;5.83;;;4.00;;
7875;SDS011;69649;53.712;9.680;2023-07-24T09:46:45;4.70;;;3.93;;
7875;SDS011;69649;53.712;9.680;2023-07-24T09:49:12;4.90;;;4.40;;
7875;SDS011;69649;53.712;9.680;2023-07-24T09:51:38;6.70;;;4.33;;
7875;SDS011;69649;53.712;9.680;2023-07-24T09:54:22;5.20;;;3.50;;
7875;SDS011;69649;53.712;9.680;2023-07-24T09:56:49;5.27;;;4.77;;
7875;SDS011;69649;53.712;9.680;2023-07-24T09:59:17;6.17;;;4.83;;
7875;SDS011;69649;53.712;9.680;2023-07-24T10:01:45;3.97;;;3.43;;
7875;SDS011;69649;53.712;9.680;2023-07-24T10:04:12;7.80;;;4.37;;
7875;SDS011;69649;53.712;9.680;2023-07-24T10:06:41;6.23;;;5.73;;
7875;SDS011;69649;53.712;9.680;2023-07-24T10:09:08;5.23;;;4.73;;
7875;SDS011;69649;53.712;9.680;2023-07-24T10:11:34;9.93;;;7.10;;
7875;SDS011;69649;53.712;9.680;2023-07-24T10:14:00;5.90;;;5.30;;
7875;SDS011;69649;53.712;9.680;2023-07-24T10:16:27;25.07;;;14.83;;
7875;SDS011;69649;53.712;9.680;2023-07-24T10:18:53;16.50;;;9.57;;
7875;SDS011;69649;53.712;9.680;2023-07-24T10:21:18;6.13;;;5.20;;
7875;SDS011;69649;53.712;9.680;2023-07-24T10:23:48;10.00;;;7.90;;
7875;SDS011;69649;53.712;9.680;2023-07-24T10:26:14;7.10;;;5.87;;
7875;SDS011;69649;53.712;9.680;2023-07-24T10:28:41;11.03;;;7.87;;
7875;SDS011;69649;53.712;9.680;2023-07-24T10:31:23;9.97;;;6.23;;
7875;SDS011;69649;53.712;9.680;2023-07-24T10:33:51;8.10;;;6.90;;
7875;SDS011;69649;53.712;9.680;2023-07-24T10:36:21;8.37;;;6.43;;
7875;SDS011;69649;53.712;9.680;2023-07-24T10:38:52;7.53;;;6.07;;
7875;SDS011;69649;53.712;9.680;2023-07-24T10:41:19;5.47;;;3.90;;
7875;SDS011;69649;53.712;9.680;2023-07-24T10:43:46;4.50;;;3.87;;
7875;SDS011;69649;53.712;9.680;2023-07-24T10:46:13;4.27;;;3.60;;
7875;SDS011;69649;53.712;9.680;2023-07-24T10:48:44;5.27;;;3.50;;
7875;SDS011;69649;53.712;9.680;2023-07-24T10:51:11;4.63;;;2.87;;
7875;SDS011;69649;53.712;9.680;2023-07-24T10:53:40;5.23;;;3.03;;
7875;SDS011;69649;53.712;9.680;2023-07-24T10:56:08;4.10;;;3.27;;
7875;SDS011;69649;53.712;9.680;2023-07-24T10:58:35;4.07;;;3.67;;
7875;SDS011;69649;53.712;9.680;2023-07-24T11:01:03;2.90;;;2.70;;
7875;SDS011;69649;53.712;9.680;2023-07-24T11:03:30;4.10;;;3.27;;
7875;SDS011;69649;53.712;9.680;2023-07-24T11:05:57;4.03;;;3.50;;
7875;SDS011;69649;53.712;9.680;2023-07-24T11:08:24;3.00;;;2.53;;
7875;SDS011;69649;53.712;9.680;2023-07-24T11:10:51;4.43;;;3.50;;
7875;SDS011;69649;53.712;9.680;2023-07-24T11:13:19;4.33;;;3.43;;
7875;SDS011;69649;53.712;9.680;2023-07-24T11:15:47;3.17;;;2.77;;
7875;SDS011;69649;53.712;9.680;2023-07-24T11:18:14;8.13;;;3.47;;
7875;SDS011;69649;53.712;9.680;2023-07-24T11:20:44;4.10;;;2.77;;
7875;SDS011;69649;53.712;9.680;2023-07-24T11:23:11;3.00;;;2.60;;
7875;SDS011;69649;53.712;9.680;2023-07-24T11:25:38;3.93;;;2.57;;
7875;SDS011;69649;53.712;9.680;2023-07-24T11:28:08;4.33;;;3.17;;
7875;SDS011;69649;53.712;9.680;2023-07-24T11:30:35;4.23;;;2.40;;
7875;SDS011;69649;53.712;9.680;2023-07-24T11:33:03;4.23;;;2.90;;
7875;SDS011;69649;53.712;9.680;2023-07-24T11:35:30;3.47;;;3.17;;
7875;SDS011;69649;53.712;9.680;2023-07-24T11:37:56;2.97;;;2.43;;
7875;SDS011;69649;53.712;9.680;2023-07-24T11:40:30;4.60;;;3.50;;
7875;SDS011;69649;53.712;9.680;2023-07-24T11:42:54;5.67;;;3.07;;
7875;SDS011;69649;53.712;9.680;2023-07-24T11:45:20;3.80;;;3.03;;
7875;SDS011;69649;53.712;9.680;2023-07-24T11:47:47;4.67;;;3.30;;
7875;SDS011;69649;53.712;9.680;2023-07-24T11:50:14;2.90;;;2.60;;
7875;SDS011;69649;53.712;9.680;2023-07-24T11:52:47;3.00;;;2.70;;
7875;SDS011;69649;53.712;9.680;2023-07-24T11:55:15;3.13;;;2.83;;
7875;SDS011;69649;53.712;9.680;2023-07-24T11:57:58;4.00;;;2.87;;
7875;SDS011;69649;53.712;9.680;2023-07-24T12:00:26;3.07;;;2.67;;
7875;SDS011;69649;53.712;9.680;2023-07-24T12:02:53;3.10;;;2.53;;
7875;SDS011;69649;53.712;9.680;2023-07-24T12:05:21;4.00;;;2.63;;
7875;SDS011;69649;53.712;9.680;2023-07-24T12:07:47;3.80;;;2.73;;
7875;SDS011;69649;53.712;9.680;2023-07-24T12:10:13;4.60;;;3.00;;
7875;SDS011;69649;53.712;9.680;2023-07-24T12:12:44;3.42;;;2.72;;
7875;SDS011;69649;53.712;9.680;2023-07-24T12:15:12;4.87;;;2.90;;
7875;SDS011;69649;53.712;9.680;2023-07-24T12:17:39;3.33;;;2.77;;
7875;SDS011;69649;53.712;9.680;2023-07-24T12:20:07;2.70;;;2.50;;
7875;SDS011;69649;53.712;9.680;2023-07-24T12:22:35;2.60;;;2.40;;
7875;SDS011;69649;53.712;9.680;2023-07-24T12:25:03;3.90;;;2.97;;
7875;SDS011;69649;53.712;9.680;2023-07-24T12:27:29;2.67;;;2.47;;
7875;SDS011;69649;53.712;9.680;2023-07-24T12:29:56;3.40;;;2.67;;
7875;SDS011;69649;53.712;9.680;2023-07-24T12:32:22;2.40;;;2.20;;
7875;SDS011;69649;53.712;9.680;2023-07-24T12:34:48;4.20;;;2.87;;
7875;SDS011;69649;53.712;9.680;2023-07-24T12:37:16;4.70;;;2.80;;
7875;SDS011;69649;53.712;9.680;2023-07-24T12:39:46;4.00;;;2.75;;
7875;SDS011;69649;53.712;9.680;2023-07-24T12:42:13;3.37;;;2.70;;
7875;SDS011;69649;53.712;9.680;2023-07-24T12:44:40;4.43;;;3.00;;
7875;SDS011;69649;53.712;9.680;2023-07-24T12:47:07;3.70;;;2.77;;
7875;SDS011;69649;53.712;9.680;2023-07-24T12:49:33;3.53;;;2.43;;
7875;SDS011;69649;53.712;9.680;2023-07-24T12:51:58;4.65;;;3.52;;
7875;SDS011;69649;53.712;9.680;2023-07-24T12:54:24;3.15;;;2.30;;
7875;SDS011;69649;53.712;9.680;2023-07-24T12:56:50;3.08;;;2.52;;
7875;SDS011;69649;53.712;9.680;2023-07-24T12:59:17;3.65;;;3.30;;
7875;SDS011;69649;53.712;9.680;2023-07-24T13:01:43;3.35;;;3.05;;
7875;SDS011;69649;53.712;9.680;2023-07-24T13:04:10;3.55;;;3.22;;
7875;SDS011;69649;53.712;9.680;2023-07-24T13:06:35;3.67;;;2.80;;
7875;SDS011;69649;53.712;9.680;2023-07-24T13:09:02;5.92;;;3.55;;
7875;SDS011;69649;53.712;9.680;2023-07-24T13:11:28;2.87;;;2.58;;
7875;SDS011;69649;53.712;9.680;2023-07-24T13:13:55;2.87;;;2.37;;
7875;SDS011;69649;53.712;9.680;2023-07-24T13:16:21;3.30;;;3.00;;
7875;SDS011;69649;53.712;9.680;2023-07-24T13:18:48;2.90;;;2.67;;
7875;SDS011;69649;53.712;9.680;2023-07-24T13:21:14;2.83;;;2.52;;
7875;SDS011;69649;53.712;9.680;2023-07-24T13:23:40;3.70;;;2.92;;
7875;SDS011;69649;53.712;9.680;2023-07-24T13:26:06;3.10;;;2.60;;
7875;SDS011;69649;53.712;9.680;2023-07-24T13:28:36;3.50;;;2.87;;
7875;SDS011;69649;53.712;9.680;2023-07-24T13:31:14;4.03;;;3.35;;
7875;SDS011;69649;53.712;9.680;2023-07-24T13:33:42;3.65;;;2.83;;
7875;SDS011;69649;53.712;9.680;2023-07-24T13:36:08;3.60;;;3.30;;
7875;SDS011;69649;53.712;9.680;2023-07-24T13:38:34;3.40;;;2.83;;
7875;SDS011;69649;53.712;9.680;2023-07-24T13:41:00;3.42;;;3.12;;
7875;SDS011;69649;53.712;9.680;2023-07-24T13:43:27;4.30;;;2.98;;
7875;SDS011;69649;53.712;9.680;2023-07-24T13:45:53;3.33;;;3.02;;
7875;SDS011;69649;53.712;9.680;2023-07-24T13:48:19;3.25;;;2.95;;
7875;SDS011;69649;53.712;9.680;2023-07-24T13:50:45;2.77;;;2.45;;
7875;SDS011;69649;53.712;9.680;2023-07-24T13:53:11;3.83;;;2.80;;
7875;SDS011;69649;53.712;9.680;2023-07-24T13:55:37;3.05;;;2.62;;
7875;SDS011;69649;53.712;9.680;2023-07-24T13:58:03;3.75;;;3.12;;
7875;SDS011;69649;53.712;9.680;2023-07-24T14:00:29;3.72;;;3.27;;
7875;SDS011;69649;53.712;9.680;2023-07-24T14:02:55;3.73;;;3.33;;
7875;SDS011;69649;53.712;9.680;2023-07-24T14:05:21;4.10;;;3.60;;
7875;SDS011;69649;53.712;9.680;2023-07-24T14:07:46;4.37;;;2.83;;
7875;SDS011;69649;53.712;9.680;2023-07-24T14:10:12;3.60;;;3.10;;
7875;SDS011;69649;53.712;9.680;2023-07-24T14:12:38;6.70;;;3.40;;
7875;SDS011;69649;53.712;9.680;2023-07-24T14:15:04;4.90;;;3.47;;
7875;SDS011;69649;53.712;9.680;2023-07-24T14:17:30;6.83;;;3.33;;
7875;SDS011;69649;53.712;9.680;2023-07-24T14:19:56;6.60;;;3.13;;
7875;SDS011;69649;53.712;9.680;2023-07-24T14:22:22;5.00;;;3.27;;
7875;SDS011;69649;53.712;9.680;2023-07-24T14:24:48;4.30;;;3.17;;
7875;SDS011;69649;53.712;9.680;2023-07-24T14:27:14;5.00;;;3.37;;
7875;SDS011;69649;53.712;9.680;2023-07-24T14:29:39;6.30;;;3.37;;
7875;SDS011;69649;53.712;9.680;2023-07-24T14:32:06;6.57;;;3.67;;
7875;SDS011;69649;53.712;9.680;2023-07-24T14:34:32;3.90;;;3.50;;
7875;SDS011;69649;53.712;9.680;2023-07-24T14:36:58;6.47;;;3.27;;
7875;SDS011;69649;53.712;9.680;2023-07-24T14:39:24;4.97;;;3.27;;
7875;SDS011;69649;53.712;9.680;2023-07-24T14:41:50;6.37;;;3.50;;
7875;SDS011;69649;53.712;9.680;2023-07-24T14:44:16;3.87;;;3.00;;
7875;SDS011;69649;53.712;9.680;2023-07-24T14:46:41;5.47;;;2.83;;
7875;SDS011;69649;53.712;9.680;2023-07-24T14:49:07;6.60;;;3.70;;
7875;SDS011;69649;53.712;9.680;2023-07-24T14:51:33;6.43;;;2.87;;
7875;SDS011;69649;53.712;9.680;2023-07-24T14:53:59;4.83;;;3.20;;
7875;SDS011;69649;53.712;9.680;2023-07-24T14:56:24;6.50;;;3.40;;
7875;SDS011;69649;53.712;9.680;2023-07-24T14:58:50;3.53;;;2.50;;